sensor_id;sensor_type;location;lat;lon;timestamp;P1;durP1;ratioP1;P2;durP2;ratioP2
69900;SDS011;57183;50.930;5.406;2023-04-24T00:00:00;9.13;;;6.18;;
69900;SDS011;57183;50.930;5.406;2023-04-24T00:02:28;8.07;;;5.70;;
69900;SDS011;57183;50.930;5.406;2023-04-24T00:04:53;10.23;;;6.82;;
69900;SDS011;57183;50.930;5.406;2023-04-24T00:07:19;12.40;;;6.72;;
69900;SDS011;57183;50.930;5.406;2023-04-24T00:09:45;10.55;;;6.90;;
69900;SDS011;57183;50.930;5.406;2023-04-24T00:12:11;10.65;;;7.93;;
69900;SDS011;57183;50.930;5.406;2023-04-24T00:14:37;8.90;;;6.40;;
69900;SDS011;57183;50.930;5.406;2023-04-24T00:17:03;13.50;;;7.32;;
69900;SDS011;57183;50.930;5.406;2023-04-24T00:19:29;13.13;;;7.05;;
69900;SDS011;57183;50.930;5.406;2023-04-24T00:21:55;13.85;;;7.95;;
69900;SDS011;57183;50.930;5.406;2023-04-24T00:24:21;10.48;;;8.13;;
69900;SDS011;57183;50.930;5.406;2023-04-24T00:26:46;15.40;;;8.05;;
69900;SDS011;57183;50.930;5.406;2023-04-24T00:29:12;12.60;;;7.43;;
69900;SDS011;57183;50.930;5.406;2023-04-24T00:31:38;13.25;;;8.32;;
69900;SDS011;57183;50.930;5.406;2023-04-24T00:34:04;19.08;;;9.13;;
69900;SDS011;57183;50.930;5.406;2023-04-24T00:36:30;13.35;;;8.13;;
69900;SDS011;57183;50.930;5.406;2023-04-24T00:38:57;13.00;;;8.82;;
69900;SDS011;57183;50.930;5.406;2023-04-24T00:41:24;16.88;;;9.70;;
69900;SDS011;57183;50.930;5.406;2023-04-24T00:43:50;18.50;;;9.63;;
69900;SDS011;57183;50.930;5.406;2023-04-24T00:46:17;17.02;;;10.68;;
69900;SDS011;57183;50.930;5.406;2023-04-24T00:48:42;16.52;;;8.10;;
69900;SDS011;57183;50.930;5.406;2023-04-24T00:51:08;14.20;;;9.50;;
69900;SDS011;57183;50.930;5.406;2023-04-24T00:53:34;19.23;;;9.68;;
69900;SDS011;57183;50.930;5.406;2023-04-24T00:56:00;18.25;;;8.52;;
69900;SDS011;57183;50.930;5.406;2023-04-24T00:58:27;13.63;;;9.18;;
69900;SDS011;57183;50.930;5.406;2023-04-24T01:00:53;16.38;;;9.20;;
69900;SDS011;57183;50.930;5.406;2023-04-24T01:03:20;15.38;;;9.13;;
69900;SDS011;57183;50.930;5.406;2023-04-24T01:05:49;17.55;;;9.98;;
69900;SDS011;57183;50.930;5.406;2023-04-24T01:08:16;16.27;;;11.05;;
69900;SDS011;57183;50.930;5.406;2023-04-24T01:10:42;20.30;;;10.30;;
69900;SDS011;57183;50.930;5.406;2023-04-24T01:13:10;17.45;;;9.43;;
69900;SDS011;57183;50.930;5.406;2023-04-24T01:15:35;18.13;;;9.25;;
69900;SDS011;57183;50.930;5.406;2023-04-24T01:18:01;17.30;;;10.48;;
69900;SDS011;57183;50.930;5.406;2023-04-24T01:20:27;22.55;;;11.50;;
69900;SDS011;57183;50.930;5.406;2023-04-24T01:22:55;15.13;;;10.35;;
69900;SDS011;57183;50.930;5.406;2023-04-24T01:25:21;16.48;;;9.20;;
69900;SDS011;57183;50.930;5.406;2023-04-24T01:27:47;17.40;;;9.43;;
69900;SDS011;57183;50.930;5.406;2023-04-24T01:30:13;15.95;;;10.55;;
69900;SDS011;57183;50.930;5.406;2023-04-24T01:32:40;19.58;;;10.77;;
69900;SDS011;57183;50.930;5.406;2023-04-24T01:35:09;20.50;;;10.68;;
69900;SDS011;57183;50.930;5.406;2023-04-24T01:37:35;19.38;;;10.52;;
69900;SDS011;57183;50.930;5.406;2023-04-24T01:40:02;13.00;;;8.75;;
69900;SDS011;57183;50.930;5.406;2023-04-24T01:42:31;12.80;;;8.75;;
69900;SDS011;57183;50.930;5.406;2023-04-24T01:44:57;13.02;;;9.52;;
69900;SDS011;57183;50.930;5.406;2023-04-24T01:47:24;14.40;;;8.98;;
69900;SDS011;57183;50.930;5.406;2023-04-24T01:49:50;15.80;;;10.38;;
69900;SDS011;57183;50.930;5.406;2023-04-24T01:52:16;17.75;;;10.38;;
69900;SDS011;57183;50.930;5.406;2023-04-24T01:54:43;17.92;;;9.73;;
69900;SDS011;57183;50.930;5.406;2023-04-24T01:57:09;13.80;;;9.75;;
69900;SDS011;57183;50.930;5.406;2023-04-24T01:59:35;16.92;;;9.43;;
69900;SDS011;57183;50.930;5.406;2023-04-24T02:02:01;15.63;;;9.20;;
69900;SDS011;57183;50.930;5.406;2023-04-24T02:04:28;17.05;;;10.68;;
69900;SDS011;57183;50.930;5.406;2023-04-24T02:06:53;14.68;;;8.52;;
69900;SDS011;57183;50.930;5.406;2023-04-24T02:09:19;17.48;;;10.35;;
69900;SDS011;57183;50.930;5.406;2023-04-24T02:11:45;19.60;;;10.40;;
69900;SDS011;57183;50.930;5.406;2023-04-24T02:14:11;18.95;;;10.55;;
69900;SDS011;57183;50.930;5.406;2023-04-24T02:16:37;18.23;;;11.07;;
69900;SDS011;57183;50.930;5.406;2023-04-24T02:19:03;17.48;;;11.32;;
69900;SDS011;57183;50.930;5.406;2023-04-24T02:21:28;17.98;;;11.68;;
69900;SDS011;57183;50.930;5.406;2023-04-24T02:23:56;19.42;;;10.98;;
69900;SDS011;57183;50.930;5.406;2023-04-24T02:26:22;17.10;;;10.38;;
69900;SDS011;57183;50.930;5.406;2023-04-24T02:28:47;20.63;;;10.73;;
69900;SDS011;57183;50.930;5.406;2023-04-24T02:31:13;16.73;;;10.25;;
69900;SDS011;57183;50.930;5.406;2023-04-24T02:33:39;19.15;;;10.73;;
69900;SDS011;57183;50.930;5.406;2023-04-24T02:36:05;15.95;;;10.40;;
69900;SDS011;57183;50.930;5.406;2023-04-24T02:38:30;17.33;;;8.73;;
69900;SDS011;57183;50.930;5.406;2023-04-24T02:40:56;16.10;;;9.40;;
69900;SDS011;57183;50.930;5.406;2023-04-24T02:43:22;19.63;;;10.35;;
69900;SDS011;57183;50.930;5.406;2023-04-24T02:45:48;15.88;;;8.35;;
69900;SDS011;57183;50.930;5.406;2023-04-24T02:48:14;16.75;;;9.38;;
69900;SDS011;57183;50.930;5.406;2023-04-24T02:50:39;17.45;;;9.60;;
69900;SDS011;57183;50.930;5.406;2023-04-24T02:53:05;16.10;;;10.30;;
69900;SDS011;57183;50.930;5.406;2023-04-24T02:55:31;12.60;;;9.25;;
69900;SDS011;57183;50.930;5.406;2023-04-24T02:57:57;12.98;;;9.25;;
69900;SDS011;57183;50.930;5.406;2023-04-24T03:00:22;12.88;;;8.80;;
69900;SDS011;57183;50.930;5.406;2023-04-24T03:02:48;11.57;;;8.45;;
69900;SDS011;57183;50.930;5.406;2023-04-24T03:05:15;18.73;;;10.43;;
69900;SDS011;57183;50.930;5.406;2023-04-24T03:07:40;15.27;;;9.77;;
69900;SDS011;57183;50.930;5.406;2023-04-24T03:10:06;12.07;;;8.82;;
69900;SDS011;57183;50.930;5.406;2023-04-24T03:12:32;13.25;;;8.98;;
69900;SDS011;57183;50.930;5.406;2023-04-24T03:14:58;12.63;;;9.45;;
69900;SDS011;57183;50.930;5.406;2023-04-24T03:17:24;15.00;;;8.63;;
69900;SDS011;57183;50.930;5.406;2023-04-24T03:19:50;14.48;;;9.40;;
69900;SDS011;57183;50.930;5.406;2023-04-24T03:22:15;12.93;;;8.50;;
69900;SDS011;57183;50.930;5.406;2023-04-24T03:24:41;11.23;;;8.18;;
69900;SDS011;57183;50.930;5.406;2023-04-24T03:27:07;14.82;;;7.88;;
69900;SDS011;57183;50.930;5.406;2023-04-24T03:29:32;16.25;;;10.75;;
69900;SDS011;57183;50.930;5.406;2023-04-24T03:31:58;13.52;;;8.93;;
69900;SDS011;57183;50.930;5.406;2023-04-24T03:34:24;15.20;;;9.27;;
69900;SDS011;57183;50.930;5.406;2023-04-24T03:36:49;15.50;;;10.00;;
69900;SDS011;57183;50.930;5.406;2023-04-24T03:39:15;16.80;;;9.60;;
69900;SDS011;57183;50.930;5.406;2023-04-24T03:41:41;13.55;;;9.40;;
69900;SDS011;57183;50.930;5.406;2023-04-24T03:44:07;17.85;;;11.00;;
69900;SDS011;57183;50.930;5.406;2023-04-24T03:46:32;14.75;;;9.18;;
69900;SDS011;57183;50.930;5.406;2023-04-24T03:48:58;12.52;;;7.32;;
69900;SDS011;57183;50.930;5.406;2023-04-24T03:51:24;13.10;;;7.10;;
69900;SDS011;57183;50.930;5.406;2023-04-24T03:53:50;12.75;;;9.25;;
69900;SDS011;57183;50.930;5.406;2023-04-24T03:56:15;17.88;;;9.43;;
69900;SDS011;57183;50.930;5.406;2023-04-24T03:58:41;15.60;;;9.57;;
69900;SDS011;57183;50.930;5.406;2023-04-24T04:01:07;20.80;;;10.73;;
69900;SDS011;57183;50.930;5.406;2023-04-24T04:03:33;11.00;;;9.05;;
69900;SDS011;57183;50.930;5.406;2023-04-24T04:05:59;11.82;;;7.07;;
69900;SDS011;57183;50.930;5.406;2023-04-24T04:08:24;12.27;;;7.38;;
69900;SDS011;57183;50.930;5.406;2023-04-24T04:10:50;13.45;;;8.63;;
69900;SDS011;57183;50.930;5.406;2023-04-24T04:13:16;19.92;;;9.30;;
69900;SDS011;57183;50.930;5.406;2023-04-24T04:15:41;15.30;;;9.80;;
69900;SDS011;57183;50.930;5.406;2023-04-24T04:18:08;13.02;;;8.82;;
69900;SDS011;57183;50.930;5.406;2023-04-24T04:20:34;8.95;;;7.38;;
69900;SDS011;57183;50.930;5.406;2023-04-24T04:22:59;15.80;;;7.68;;
69900;SDS011;57183;50.930;5.406;2023-04-24T04:25:25;10.93;;;7.78;;
69900;SDS011;57183;50.930;5.406;2023-04-24T04:27:51;12.63;;;7.43;;
69900;SDS011;57183;50.930;5.406;2023-04-24T04:30:17;11.93;;;8.63;;
69900;SDS011;57183;50.930;5.406;2023-04-24T04:32:43;10.13;;;8.02;;
69900;SDS011;57183;50.930;5.406;2023-04-24T04:35:09;14.13;;;8.05;;
69900;SDS011;57183;50.930;5.406;2023-04-24T04:37:35;15.98;;;8.48;;
69900;SDS011;57183;50.930;5.406;2023-04-24T04:40:01;11.05;;;8.60;;
69900;SDS011;57183;50.930;5.406;2023-04-24T04:42:37;12.40;;;7.97;;
69900;SDS011;57183;50.930;5.406;2023-04-24T04:45:07;11.55;;;7.68;;
69900;SDS011;57183;50.930;5.406;2023-04-24T04:47:36;11.57;;;8.40;;
69900;SDS011;57183;50.930;5.406;2023-04-24T04:50:02;8.65;;;7.13;;
69900;SDS011;57183;50.930;5.406;2023-04-24T04:52:30;11.15;;;8.55;;
69900;SDS011;57183;50.930;5.406;2023-04-24T04:54:56;9.57;;;6.55;;
69900;SDS011;57183;50.930;5.406;2023-04-24T04:57:21;10.20;;;7.80;;
69900;SDS011;57183;50.930;5.406;2023-04-24T04:59:47;7.82;;;5.40;;
69900;SDS011;57183;50.930;5.406;2023-04-24T05:02:13;11.77;;;6.53;;
69900;SDS011;57183;50.930;5.406;2023-04-24T05:04:39;7.90;;;5.70;;
69900;SDS011;57183;50.930;5.406;2023-04-24T05:07:05;11.07;;;6.32;;
69900;SDS011;57183;50.930;5.406;2023-04-24T05:09:31;8.20;;;6.07;;
69900;SDS011;57183;50.930;5.406;2023-04-24T05:11:57;8.88;;;5.63;;
69900;SDS011;57183;50.930;5.406;2023-04-24T05:14:22;10.27;;;6.07;;
69900;SDS011;57183;50.930;5.406;2023-04-24T05:16:48;9.57;;;5.95;;
69900;SDS011;57183;50.930;5.406;2023-04-24T05:19:14;7.85;;;5.40;;
69900;SDS011;57183;50.930;5.406;2023-04-24T05:21:40;12.43;;;7.38;;
69900;SDS011;57183;50.930;5.406;2023-04-24T05:24:06;11.30;;;7.57;;
69900;SDS011;57183;50.930;5.406;2023-04-24T05:26:32;7.20;;;5.40;;
69900;SDS011;57183;50.930;5.406;2023-04-24T05:28:57;10.20;;;6.13;;
69900;SDS011;57183;50.930;5.406;2023-04-24T05:31:24;7.65;;;6.50;;
69900;SDS011;57183;50.930;5.406;2023-04-24T05:33:50;10.88;;;6.40;;
69900;SDS011;57183;50.930;5.406;2023-04-24T05:36:16;8.27;;;6.82;;
69900;SDS011;57183;50.930;5.406;2023-04-24T05:38:41;10.65;;;6.75;;
69900;SDS011;57183;50.930;5.406;2023-04-24T05:41:07;8.23;;;5.63;;
69900;SDS011;57183;50.930;5.406;2023-04-24T05:43:33;8.52;;;5.78;;
69900;SDS011;57183;50.930;5.406;2023-04-24T05:45:58;9.48;;;7.05;;
69900;SDS011;57183;50.930;5.406;2023-04-24T05:48:24;7.60;;;6.55;;
69900;SDS011;57183;50.930;5.406;2023-04-24T05:50:50;10.82;;;6.45;;
69900;SDS011;57183;50.930;5.406;2023-04-24T05:53:17;8.43;;;5.65;;
69900;SDS011;57183;50.930;5.406;2023-04-24T05:55:43;8.63;;;5.97;;
69900;SDS011;57183;50.930;5.406;2023-04-24T05:58:09;9.38;;;4.60;;
69900;SDS011;57183;50.930;5.406;2023-04-24T06:00:35;8.40;;;5.57;;
69900;SDS011;57183;50.930;5.406;2023-04-24T06:03:01;10.23;;;5.03;;
69900;SDS011;57183;50.930;5.406;2023-04-24T06:05:28;5.07;;;3.65;;
69900;SDS011;57183;50.930;5.406;2023-04-24T06:07:55;8.57;;;4.75;;
69900;SDS011;57183;50.930;5.406;2023-04-24T06:10:20;7.80;;;5.38;;
69900;SDS011;57183;50.930;5.406;2023-04-24T06:12:46;11.20;;;5.20;;
69900;SDS011;57183;50.930;5.406;2023-04-24T06:15:12;6.78;;;4.90;;
69900;SDS011;57183;50.930;5.406;2023-04-24T06:17:38;7.30;;;5.13;;
69900;SDS011;57183;50.930;5.406;2023-04-24T06:20:03;12.65;;;6.47;;
69900;SDS011;57183;50.930;5.406;2023-04-24T06:22:31;9.77;;;6.13;;
69900;SDS011;57183;50.930;5.406;2023-04-24T06:24:56;9.73;;;5.75;;
69900;SDS011;57183;50.930;5.406;2023-04-24T06:27:22;10.88;;;7.43;;
69900;SDS011;57183;50.930;5.406;2023-04-24T06:29:48;10.93;;;6.85;;
69900;SDS011;57183;50.930;5.406;2023-04-24T06:32:20;13.05;;;6.97;;
69900;SDS011;57183;50.930;5.406;2023-04-24T06:34:47;11.02;;;6.90;;
69900;SDS011;57183;50.930;5.406;2023-04-24T06:37:12;9.20;;;6.18;;
69900;SDS011;57183;50.930;5.406;2023-04-24T06:39:39;13.10;;;7.63;;
69900;SDS011;57183;50.930;5.406;2023-04-24T06:42:04;10.82;;;6.78;;
69900;SDS011;57183;50.930;5.406;2023-04-24T06:44:30;8.43;;;6.05;;
69900;SDS011;57183;50.930;5.406;2023-04-24T06:46:56;7.88;;;6.28;;
69900;SDS011;57183;50.930;5.406;2023-04-24T06:49:21;11.73;;;7.00;;
69900;SDS011;57183;50.930;5.406;2023-04-24T06:51:47;15.75;;;7.40;;
69900;SDS011;57183;50.930;5.406;2023-04-24T06:54:13;13.15;;;7.57;;
69900;SDS011;57183;50.930;5.406;2023-04-24T06:56:38;9.07;;;4.55;;
69900;SDS011;57183;50.930;5.406;2023-04-24T06:59:04;14.52;;;7.90;;
69900;SDS011;57183;50.930;5.406;2023-04-24T07:01:30;12.85;;;7.75;;
69900;SDS011;57183;50.930;5.406;2023-04-24T07:03:55;8.85;;;6.60;;
69900;SDS011;57183;50.930;5.406;2023-04-24T07:06:21;11.75;;;8.25;;
69900;SDS011;57183;50.930;5.406;2023-04-24T07:08:48;14.75;;;8.82;;
69900;SDS011;57183;50.930;5.406;2023-04-24T07:11:14;17.27;;;9.50;;
69900;SDS011;57183;50.930;5.406;2023-04-24T07:13:39;14.07;;;8.88;;
69900;SDS011;57183;50.930;5.406;2023-04-24T07:16:07;15.23;;;9.35;;
69900;SDS011;57183;50.930;5.406;2023-04-24T07:18:33;15.90;;;9.63;;
69900;SDS011;57183;50.930;5.406;2023-04-24T07:20:59;19.08;;;9.50;;
69900;SDS011;57183;50.930;5.406;2023-04-24T07:23:25;17.10;;;10.18;;
69900;SDS011;57183;50.930;5.406;2023-04-24T07:25:51;16.20;;;10.02;;
69900;SDS011;57183;50.930;5.406;2023-04-24T07:28:17;20.27;;;10.65;;
69900;SDS011;57183;50.930;5.406;2023-04-24T07:30:43;19.75;;;9.82;;
69900;SDS011;57183;50.930;5.406;2023-04-24T07:33:08;24.27;;;11.63;;
69900;SDS011;57183;50.930;5.406;2023-04-24T07:35:37;15.35;;;10.80;;
69900;SDS011;57183;50.930;5.406;2023-04-24T07:38:03;18.90;;;10.90;;
69900;SDS011;57183;50.930;5.406;2023-04-24T07:40:29;18.00;;;9.77;;
69900;SDS011;57183;50.930;5.406;2023-04-24T07:42:56;17.75;;;11.60;;
69900;SDS011;57183;50.930;5.406;2023-04-24T07:45:22;18.52;;;9.98;;
69900;SDS011;57183;50.930;5.406;2023-04-24T07:47:49;18.65;;;11.05;;
69900;SDS011;57183;50.930;5.406;2023-04-24T07:50:15;14.88;;;7.65;;
69900;SDS011;57183;50.930;5.406;2023-04-24T07:52:41;17.88;;;10.95;;
69900;SDS011;57183;50.930;5.406;2023-04-24T07:55:07;18.15;;;10.27;;
69900;SDS011;57183;50.930;5.406;2023-04-24T07:57:33;17.50;;;11.02;;
69900;SDS011;57183;50.930;5.406;2023-04-24T07:59:58;11.75;;;8.95;;
69900;SDS011;57183;50.930;5.406;2023-04-24T08:02:24;18.10;;;10.25;;
69900;SDS011;57183;50.930;5.406;2023-04-24T08:04:54;13.18;;;7.20;;
69900;SDS011;57183;50.930;5.406;2023-04-24T08:07:20;19.98;;;12.15;;
69900;SDS011;57183;50.930;5.406;2023-04-24T08:09:46;21.23;;;11.65;;
69900;SDS011;57183;50.930;5.406;2023-04-24T08:12:12;17.20;;;11.38;;
69900;SDS011;57183;50.930;5.406;2023-04-24T08:14:37;25.30;;;14.25;;
69900;SDS011;57183;50.930;5.406;2023-04-24T08:17:03;17.05;;;12.10;;
69900;SDS011;57183;50.930;5.406;2023-04-24T08:19:29;23.83;;;13.25;;
69900;SDS011;57183;50.930;5.406;2023-04-24T08:21:54;21.58;;;12.23;;
69900;SDS011;57183;50.930;5.406;2023-04-24T08:24:20;23.48;;;11.35;;
69900;SDS011;57183;50.930;5.406;2023-04-24T08:26:47;17.05;;;10.52;;
69900;SDS011;57183;50.930;5.406;2023-04-24T08:29:15;14.32;;;10.35;;
69900;SDS011;57183;50.930;5.406;2023-04-24T08:31:41;17.77;;;10.75;;
69900;SDS011;57183;50.930;5.406;2023-04-24T08:34:07;17.02;;;10.65;;
69900;SDS011;57183;50.930;5.406;2023-04-24T08:36:34;23.08;;;12.00;;
69900;SDS011;57183;50.930;5.406;2023-04-24T08:39:00;19.13;;;10.88;;
69900;SDS011;57183;50.930;5.406;2023-04-24T08:41:26;17.30;;;10.75;;
69900;SDS011;57183;50.930;5.406;2023-04-24T08:43:52;14.85;;;8.77;;
69900;SDS011;57183;50.930;5.406;2023-04-24T08:46:20;24.73;;;11.05;;
69900;SDS011;57183;50.930;5.406;2023-04-24T08:48:47;16.05;;;10.88;;
69900;SDS011;57183;50.930;5.406;2023-04-24T08:51:14;24.73;;;11.18;;
69900;SDS011;57183;50.930;5.406;2023-04-24T08:53:42;19.55;;;10.30;;
69900;SDS011;57183;50.930;5.406;2023-04-24T08:56:08;17.45;;;8.70;;
69900;SDS011;57183;50.930;5.406;2023-04-24T08:58:36;13.15;;;7.53;;
69900;SDS011;57183;50.930;5.406;2023-04-24T09:01:03;17.27;;;8.65;;
69900;SDS011;57183;50.930;5.406;2023-04-24T09:03:30;18.27;;;6.95;;
69900;SDS011;57183;50.930;5.406;2023-04-24T09:06:00;11.70;;;7.00;;
69900;SDS011;57183;50.930;5.406;2023-04-24T09:08:30;9.88;;;7.30;;
69900;SDS011;57183;50.930;5.406;2023-04-24T09:10:57;12.25;;;6.72;;
69900;SDS011;57183;50.930;5.406;2023-04-24T09:13:27;16.25;;;6.38;;
69900;SDS011;57183;50.930;5.406;2023-04-24T09:15:53;14.88;;;7.85;;
69900;SDS011;57183;50.930;5.406;2023-04-24T09:18:22;12.27;;;4.82;;
69900;SDS011;57183;50.930;5.406;2023-04-24T09:21:01;16.15;;;5.43;;
69900;SDS011;57183;50.930;5.406;2023-04-24T09:23:34;10.32;;;3.90;;
69900;SDS011;57183;50.930;5.406;2023-04-24T09:26:01;9.45;;;5.65;;
69900;SDS011;57183;50.930;5.406;2023-04-24T09:28:33;10.65;;;4.10;;
69900;SDS011;57183;50.930;5.406;2023-04-24T09:31:08;10.80;;;4.10;;
69900;SDS011;57183;50.930;5.406;2023-04-24T09:33:53;11.95;;;3.58;;
69900;SDS011;57183;50.930;5.406;2023-04-24T09:36:26;15.43;;;4.40;;
69900;SDS011;57183;50.930;5.406;2023-04-24T09:38:59;11.90;;;5.35;;
69900;SDS011;57183;50.930;5.406;2023-04-24T09:41:26;13.27;;;4.28;;
69900;SDS011;57183;50.930;5.406;2023-04-24T09:44:10;5.13;;;4.30;;
69900;SDS011;57183;50.930;5.406;2023-04-24T09:46:40;9.95;;;6.07;;
69900;SDS011;57183;50.930;5.406;2023-04-24T09:49:12;10.55;;;7.18;;
69900;SDS011;57183;50.930;5.406;2023-04-24T09:51:40;18.45;;;7.85;;
69900;SDS011;57183;50.930;5.406;2023-04-24T09:54:16;16.35;;;8.65;;
69900;SDS011;57183;50.930;5.406;2023-04-24T09:56:44;18.60;;;8.50;;
69900;SDS011;57183;50.930;5.406;2023-04-24T09:59:13;12.48;;;7.20;;
69900;SDS011;57183;50.930;5.406;2023-04-24T10:01:39;17.40;;;8.18;;
69900;SDS011;57183;50.930;5.406;2023-04-24T10:04:21;13.20;;;6.88;;
69900;SDS011;57183;50.930;5.406;2023-04-24T10:06:49;14.07;;;6.38;;
69900;SDS011;57183;50.930;5.406;2023-04-24T10:09:20;12.57;;;7.15;;
69900;SDS011;57183;50.930;5.406;2023-04-24T10:11:49;15.18;;;8.05;;
69900;SDS011;57183;50.930;5.406;2023-04-24T10:14:20;11.73;;;7.70;;
69900;SDS011;57183;50.930;5.406;2023-04-24T10:16:47;13.70;;;6.80;;
69900;SDS011;57183;50.930;5.406;2023-04-24T10:19:19;8.57;;;4.53;;
69900;SDS011;57183;50.930;5.406;2023-04-24T10:21:45;16.15;;;6.07;;
69900;SDS011;57183;50.930;5.406;2023-04-24T10:24:15;9.38;;;5.25;;
69900;SDS011;57183;50.930;5.406;2023-04-24T10:26:42;4.53;;;3.25;;
69900;SDS011;57183;50.930;5.406;2023-04-24T10:29:10;13.23;;;5.30;;
69900;SDS011;57183;50.930;5.406;2023-04-24T10:31:38;9.05;;;4.72;;
69900;SDS011;57183;50.930;5.406;2023-04-24T10:34:05;15.02;;;5.30;;
69900;SDS011;57183;50.930;5.406;2023-04-24T10:36:32;7.57;;;5.03;;
69900;SDS011;57183;50.930;5.406;2023-04-24T10:39:00;8.18;;;4.60;;
69900;SDS011;57183;50.930;5.406;2023-04-24T10:41:30;8.10;;;5.53;;
69900;SDS011;57183;50.930;5.406;2023-04-24T10:46:38;11.88;;;5.40;;
69900;SDS011;57183;50.930;5.406;2023-04-24T10:49:07;11.32;;;6.28;;
69900;SDS011;57183;50.930;5.406;2023-04-24T10:54:35;8.63;;;5.90;;
69900;SDS011;57183;50.930;5.406;2023-04-24T10:59:43;10.52;;;6.07;;
69900;SDS011;57183;50.930;5.406;2023-04-24T11:02:09;9.82;;;6.03;;
69900;SDS011;57183;50.930;5.406;2023-04-24T11:04:35;8.70;;;6.25;;
69900;SDS011;57183;50.930;5.406;2023-04-24T11:07:04;10.32;;;6.38;;
69900;SDS011;57183;50.930;5.406;2023-04-24T11:09:30;13.63;;;6.45;;
69900;SDS011;57183;50.930;5.406;2023-04-24T11:12:07;12.02;;;6.80;;
69900;SDS011;57183;50.930;5.406;2023-04-24T11:15:21;10.00;;;5.75;;
69900;SDS011;57183;50.930;5.406;2023-04-24T11:17:34;15.20;;;7.00;;
69900;SDS011;57183;50.930;5.406;2023-04-24T11:20:09;11.75;;;6.95;;
69900;SDS011;57183;50.930;5.406;2023-04-24T11:22:36;14.15;;;7.03;;
69900;SDS011;57183;50.930;5.406;2023-04-24T11:25:05;17.58;;;7.80;;
69900;SDS011;57183;50.930;5.406;2023-04-24T11:27:37;10.95;;;7.15;;
69900;SDS011;57183;50.930;5.406;2023-04-24T11:30:05;14.05;;;6.88;;
69900;SDS011;57183;50.930;5.406;2023-04-24T11:37:40;11.82;;;5.97;;
69900;SDS011;57183;50.930;5.406;2023-04-24T11:40:15;11.13;;;4.97;;
69900;SDS011;57183;50.930;5.406;2023-04-24T11:42:43;10.32;;;6.00;;
69900;SDS011;57183;50.930;5.406;2023-04-24T11:45:25;11.00;;;5.97;;
69900;SDS011;57183;50.930;5.406;2023-04-24T11:47:55;23.77;;;5.88;;
69900;SDS011;57183;50.930;5.406;2023-04-24T11:50:24;8.48;;;3.00;;
69900;SDS011;57183;50.930;5.406;2023-04-24T11:52:51;6.00;;;3.75;;
69900;SDS011;57183;50.930;5.406;2023-04-24T11:57:50;9.38;;;4.82;;
69900;SDS011;57183;50.930;5.406;2023-04-24T12:00:19;9.95;;;3.92;;
69900;SDS011;57183;50.930;5.406;2023-04-24T12:02:46;9.15;;;4.70;;
69900;SDS011;57183;50.930;5.406;2023-04-24T12:05:22;12.20;;;5.47;;
69900;SDS011;57183;50.930;5.406;2023-04-24T12:07:49;6.97;;;4.40;;
69900;SDS011;57183;50.930;5.406;2023-04-24T12:10:19;11.40;;;5.07;;
69900;SDS011;57183;50.930;5.406;2023-04-24T12:12:46;7.75;;;4.95;;
69900;SDS011;57183;50.930;5.406;2023-04-24T12:15:11;9.13;;;4.30;;
69900;SDS011;57183;50.930;5.406;2023-04-24T12:17:40;8.48;;;4.15;;
69900;SDS011;57183;50.930;5.406;2023-04-24T12:20:07;7.32;;;3.85;;
69900;SDS011;57183;50.930;5.406;2023-04-24T12:25:29;3.60;;;2.88;;
69900;SDS011;57183;50.930;5.406;2023-04-24T12:30:31;5.20;;;1.88;;
69900;SDS011;57183;50.930;5.406;2023-04-24T12:32:59;7.85;;;3.17;;
69900;SDS011;57183;50.930;5.406;2023-04-24T12:35:29;4.32;;;1.80;;
69900;SDS011;57183;50.930;5.406;2023-04-24T12:38:06;3.35;;;1.95;;
69900;SDS011;57183;50.930;5.406;2023-04-24T12:40:33;9.30;;;3.50;;
69900;SDS011;57183;50.930;5.406;2023-04-24T12:42:59;7.88;;;3.22;;
69900;SDS011;57183;50.930;5.406;2023-04-24T12:45:24;7.40;;;3.47;;
69900;SDS011;57183;50.930;5.406;2023-04-24T12:47:52;7.72;;;3.95;;
69900;SDS011;57183;50.930;5.406;2023-04-24T12:50:18;4.15;;;3.05;;
69900;SDS011;57183;50.930;5.406;2023-04-24T12:52:44;7.43;;;3.33;;
69900;SDS011;57183;50.930;5.406;2023-04-24T12:55:10;5.97;;;3.85;;
69900;SDS011;57183;50.930;5.406;2023-04-24T12:57:37;6.38;;;3.53;;
69900;SDS011;57183;50.930;5.406;2023-04-24T13:00:04;6.40;;;3.65;;
69900;SDS011;57183;50.930;5.406;2023-04-24T13:02:31;4.13;;;3.20;;
69900;SDS011;57183;50.930;5.406;2023-04-24T13:04:58;6.03;;;3.20;;
69900;SDS011;57183;50.930;5.406;2023-04-24T13:07:24;3.47;;;2.38;;
69900;SDS011;57183;50.930;5.406;2023-04-24T13:09:50;7.90;;;3.55;;
69900;SDS011;57183;50.930;5.406;2023-04-24T13:12:17;5.85;;;3.03;;
69900;SDS011;57183;50.930;5.406;2023-04-24T13:14:43;4.70;;;3.22;;
69900;SDS011;57183;50.930;5.406;2023-04-24T13:17:09;5.97;;;2.85;;
69900;SDS011;57183;50.930;5.406;2023-04-24T13:19:36;9.77;;;2.75;;
69900;SDS011;57183;50.930;5.406;2023-04-24T13:22:04;4.95;;;2.72;;
69900;SDS011;57183;50.930;5.406;2023-04-24T13:24:30;6.57;;;2.55;;
69900;SDS011;57183;50.930;5.406;2023-04-24T13:26:56;8.25;;;2.92;;
69900;SDS011;57183;50.930;5.406;2023-04-24T13:29:22;6.03;;;2.53;;
69900;SDS011;57183;50.930;5.406;2023-04-24T13:31:49;5.53;;;3.15;;
69900;SDS011;57183;50.930;5.406;2023-04-24T13:34:15;8.85;;;3.70;;
69900;SDS011;57183;50.930;5.406;2023-04-24T13:36:41;6.85;;;2.60;;
69900;SDS011;57183;50.930;5.406;2023-04-24T13:39:07;10.35;;;3.75;;
69900;SDS011;57183;50.930;5.406;2023-04-24T13:41:33;14.88;;;3.17;;
69900;SDS011;57183;50.930;5.406;2023-04-24T13:43:59;5.72;;;2.90;;
69900;SDS011;57183;50.930;5.406;2023-04-24T13:46:25;6.50;;;3.20;;
69900;SDS011;57183;50.930;5.406;2023-04-24T13:48:51;8.77;;;3.67;;
69900;SDS011;57183;50.930;5.406;2023-04-24T13:51:17;5.50;;;3.40;;
69900;SDS011;57183;50.930;5.406;2023-04-24T13:53:43;6.05;;;3.33;;
69900;SDS011;57183;50.930;5.406;2023-04-24T13:56:09;5.63;;;3.30;;
69900;SDS011;57183;50.930;5.406;2023-04-24T13:58:37;8.25;;;3.88;;
69900;SDS011;57183;50.930;5.406;2023-04-24T14:01:03;7.40;;;3.53;;
69900;SDS011;57183;50.930;5.406;2023-04-24T14:03:29;3.70;;;3.05;;
69900;SDS011;57183;50.930;5.406;2023-04-24T14:05:55;5.88;;;2.75;;
69900;SDS011;57183;50.930;5.406;2023-04-24T14:08:20;3.95;;;2.97;;
69900;SDS011;57183;50.930;5.406;2023-04-24T14:10:46;5.55;;;2.72;;
69900;SDS011;57183;50.930;5.406;2023-04-24T14:13:12;4.80;;;2.72;;
69900;SDS011;57183;50.930;5.406;2023-04-24T14:15:38;5.13;;;2.85;;
69900;SDS011;57183;50.930;5.406;2023-04-24T14:18:03;4.15;;;3.30;;
69900;SDS011;57183;50.930;5.406;2023-04-24T14:20:29;7.20;;;2.92;;
69900;SDS011;57183;50.930;5.406;2023-04-24T14:22:55;6.28;;;2.83;;
69900;SDS011;57183;50.930;5.406;2023-04-24T14:25:23;4.70;;;2.40;;
69900;SDS011;57183;50.930;5.406;2023-04-24T14:27:50;5.57;;;3.17;;
69900;SDS011;57183;50.930;5.406;2023-04-24T14:30:16;7.97;;;3.17;;
69900;SDS011;57183;50.930;5.406;2023-04-24T14:32:42;7.05;;;3.42;;
69900;SDS011;57183;50.930;5.406;2023-04-24T14:35:08;5.93;;;3.08;;
69900;SDS011;57183;50.930;5.406;2023-04-24T14:37:34;5.05;;;2.92;;
69900;SDS011;57183;50.930;5.406;2023-04-24T14:40:00;7.28;;;2.55;;
69900;SDS011;57183;50.930;5.406;2023-04-24T14:42:26;5.60;;;3.47;;
69900;SDS011;57183;50.930;5.406;2023-04-24T14:44:53;3.47;;;2.35;;
69900;SDS011;57183;50.930;5.406;2023-04-24T14:47:19;6.18;;;3.15;;
69900;SDS011;57183;50.930;5.406;2023-04-24T14:49:47;4.78;;;3.45;;
69900;SDS011;57183;50.930;5.406;2023-04-24T14:52:15;4.85;;;2.35;;
69900;SDS011;57183;50.930;5.406;2023-04-24T14:54:41;6.22;;;2.67;;